Nearby METAR Reports

 

CYKA - Kamloops Airport
Distance from station: SSW 65km
Updated: 2022-06-29 17:00
Mostly cloudy
Mostly cloudy
 Wind from SW
Wind: SW 6 km/h
Temperature: 20°C
Dew Point: 12°C
Humidity: 60%
Barometer: 1017.9 hPa
Clouds: Mostly cloudy
Visibility: 64 km
Cloud details: Few Clouds 762 m
Partly cloudy 1219 m
Mostly cloudy 2134 m
Mostly cloudy 4572 m
2022/06/30 00:00 CYKA 300000Z 22003KT 190V260 40SM FEW025 SCT040TCU BKN070 BKN150 20/12 A3006 RMK CF1TCU2AC2AC2 SLP183 DENSITY ALT 1800FT
CWSL - Salmon Arm Autob
Distance from station: SE 90km
Updated: 2022-06-29 17:00

 Wind from WNW
Wind: WNW 2 km/h
Temperature: 19°C
Dew Point: 12°C
Humidity: 64%
2022/06/30 00:00 CWSL 300000Z AUTO 30001KT 19/12 RMK AO1 0002 SLP189 T01900116 50008
CYIN - Bleibler Ranch
Distance from station: W 103km
Updated: 2022-06-29 17:10
Mostly cloudy
Mostly cloudy
 Wind from NW
Wind: NW 9 km/h
Temperature: 12°C
Dew Point: 10°C
Humidity: 88%
Barometer: 1019.3 hPa
Clouds: Mostly cloudy
Visibility: 14 km
Cloud details: Few Clouds 1372 m
Mostly cloudy 2012 m
2022/06/30 00:10 CYIN 300010Z AUTO 31005KT 9SM FEW045 BKN066 12/10 A3010 RMK SLP194 DENSITY ALT 4000FT
 
CYCP - Blue River (man)
Distance from station: NNE 116km
Updated: 2022-06-29 17:44
Light rain, Showers, Mostly cloudy
Light rain, Showers, Mostly cloudy
 Wind from SSW
Wind: SSW 6 km/h
Temperature: 16°C
Dew Point: 9°C
Humidity: 63%
Barometer: 1019.3 hPa
Summary: Light rain, Showers
Clouds: Mostly cloudy
Visibility: 24 km
Cloud details: Few Clouds 1372 m
Partly cloudy 1707 m
Mostly cloudy 2256 m
Mostly cloudy 7315 m
2022/06/30 00:44 CYCP 300044Z 21003KT 190V320 15SM -SHRA FEW045 SCT056 BKN074TCU BKN240 16/09 A3010 RMK CF1CU2TCU2CI1 SLP203 DENSITY ALT 2800FT
CYLW - Kelowna Airport
Distance from station: SSE 157km
Updated: 2022-06-29 17:17
Overcast
Overcast
 Wind from NNW
Wind: NNW 7 km/h
Temperature: 17°C
Dew Point: 14°C
Humidity: 83%
Barometer: 1018.6 hPa
Clouds: Overcast
Visibility: 14 km
Cloud details: Overcast 2012 m
2022/06/30 00:17 CYLW 300017Z AUTO 34004KT 320V100 9SM OVC066 17/14 A3008 RMK SLP187 DENSITY ALT 1900FT
CYWL - Williams Lake Airport
Distance from station: NW 164km
Updated: 2022-06-29 17:00
Mostly cloudy
Mostly cloudy
 Wind from NNW
Wind: NNW 13 km/h
Temperature: 15°C
Dew Point: 12°C
Humidity: 82%
Barometer: 1018.6 hPa
Clouds: Mostly cloudy
Visibility: 24 km
Cloud details: Few Clouds 274 m
Mostly cloudy 1219 m
2022/06/30 00:00 CYWL 300000Z 34007KT 290V360 15SM FEW009 BKN040 15/12 A3008 RMK SF2SC5 SLP196 DENSITY ALT 3700FT